Terminal Aerodrome Forecast
Issued by NWS

Home | Current Version | Previous Version | Text Only | Print | Product List | Glossary Off
Versions: 1 2 3 4 5 6 7 8 9 10 11 12 13 14 15 16 17

000
FTUS43 KICT 181140
TAFSLN
TAF
KSLN 181140Z 1812/1912 18012KT P6SM FEW250 WS020/19055KT
     FM181400 18022G32KT P6SM FEW250
     FM181600 18028G38KT P6SM FEW250
     FM190000 18020G28KT P6SM FEW150 WS020/20045KT
     FM190300 18020G28KT P6SM SCT130 WS020/21055KT
     FM190600 19020G28KT P6SM BKN060 WS020/21055KT
     FM191100 24017G22KT P6SM BKN060=

USA.gov is the U.S. government's official web portal to all federal, state and local government web resources and services.